sensor_id;sensor_type;location;lat;lon;timestamp;pressure;altitude;pressure_sealevel;temperature;humidity
7052;BME280;3567;52.444;13.556;2022-12-10T00:00:35;100471.22;;;-2.07;100.00
7052;BME280;3567;52.444;13.556;2022-12-10T00:03:00;100472.16;;;-2.08;100.00
7052;BME280;3567;52.444;13.556;2022-12-10T00:05:26;100472.31;;;-2.10;100.00
7052;BME280;3567;52.444;13.556;2022-12-10T00:07:52;100471.66;;;-2.12;100.00
7052;BME280;3567;52.444;13.556;2022-12-10T00:10:17;100467.53;;;-2.15;100.00
7052;BME280;3567;52.444;13.556;2022-12-10T00:12:43;100471.13;;;-2.16;100.00
7052;BME280;3567;52.444;13.556;2022-12-10T00:15:08;100476.38;;;-2.16;100.00
7052;BME280;3567;52.444;13.556;2022-12-10T00:17:33;100473.91;;;-2.17;100.00
7052;BME280;3567;52.444;13.556;2022-12-10T00:19:59;100483.59;;;-2.18;100.00
7052;BME280;3567;52.444;13.556;2022-12-10T00:22:24;100476.16;;;-2.22;100.00
7052;BME280;3567;52.444;13.556;2022-12-10T00:24:49;100476.00;;;-2.21;100.00
7052;BME280;3567;52.444;13.556;2022-12-10T00:27:15;100477.81;;;-2.21;100.00
7052;BME280;3567;52.444;13.556;2022-12-10T00:29:40;100475.03;;;-2.20;100.00
7052;BME280;3567;52.444;13.556;2022-12-10T00:32:05;100475.03;;;-2.20;100.00
7052;BME280;3567;52.444;13.556;2022-12-10T00:34:31;100477.81;;;-2.21;100.00
7052;BME280;3567;52.444;13.556;2022-12-10T00:36:57;100482.25;;;-2.22;100.00
7052;BME280;3567;52.444;13.556;2022-12-10T00:39:22;100484.16;;;-2.24;100.00
7052;BME280;3567;52.444;13.556;2022-12-10T00:41:48;100483.88;;;-2.21;100.00
7052;BME280;3567;52.444;13.556;2022-12-10T00:44:14;100484.03;;;-2.22;100.00
7052;BME280;3567;52.444;13.556;2022-12-10T00:46:40;100485.53;;;-2.20;100.00
7052;BME280;3567;52.444;13.556;2022-12-10T00:49:05;100486.50;;;-2.21;100.00
7052;BME280;3567;52.444;13.556;2022-12-10T00:51:30;100489.41;;;-2.24;100.00
7052;BME280;3567;52.444;13.556;2022-12-10T00:53:57;100493.03;;;-2.25;100.00
7052;BME280;3567;52.444;13.556;2022-12-10T00:56:29;100493.84;;;-2.24;100.00
7052;BME280;3567;52.444;13.556;2022-12-10T00:58:55;100497.44;;;-2.25;100.00
7052;BME280;3567;52.444;13.556;2022-12-10T01:01:24;100492.03;;;-2.24;100.00
7052;BME280;3567;52.444;13.556;2022-12-10T01:03:52;100492.38;;;-2.27;100.00
7052;BME280;3567;52.444;13.556;2022-12-10T01:06:27;100495.00;;;-2.27;100.00
7052;BME280;3567;52.444;13.556;2022-12-10T01:08:55;100497.06;;;-2.30;100.00
7052;BME280;3567;52.444;13.556;2022-12-10T01:11:22;100491.16;;;-2.32;100.00
7052;BME280;3567;52.444;13.556;2022-12-10T01:13:49;100497.25;;;-2.32;100.00
7052;BME280;3567;52.444;13.556;2022-12-10T01:16:17;100499.88;;;-2.32;100.00
7052;BME280;3567;52.444;13.556;2022-12-10T01:18:43;100498.88;;;-2.31;100.00
7052;BME280;3567;52.444;13.556;2022-12-10T01:21:11;100495.59;;;-2.33;100.00
7052;BME280;3567;52.444;13.556;2022-12-10T01:23:38;100500.03;;;-2.33;100.00
7052;BME280;3567;52.444;13.556;2022-12-10T01:26:06;100496.56;;;-2.34;100.00
7052;BME280;3567;52.444;13.556;2022-12-10T01:28:34;100494.78;;;-2.33;100.00
7052;BME280;3567;52.444;13.556;2022-12-10T01:31:02;100487.19;;;-2.37;100.00
7052;BME280;3567;52.444;13.556;2022-12-10T01:33:27;100490.63;;;-2.36;100.00
7052;BME280;3567;52.444;13.556;2022-12-10T01:35:53;100489.81;;;-2.37;100.00
7052;BME280;3567;52.444;13.556;2022-12-10T01:38:18;100495.06;;;-2.37;100.00
7052;BME280;3567;52.444;13.556;2022-12-10T01:40:44;100489.28;;;-2.40;100.00
7052;BME280;3567;52.444;13.556;2022-12-10T01:43:13;100494.53;;;-2.40;100.00
7052;BME280;3567;52.444;13.556;2022-12-10T01:45:39;100490.97;;;-2.39;100.00
7052;BME280;3567;52.444;13.556;2022-12-10T01:48:04;100482.09;;;-2.38;100.00
7052;BME280;3567;52.444;13.556;2022-12-10T01:50:29;100481.78;;;-2.35;100.00
7052;BME280;3567;52.444;13.556;2022-12-10T01:52:55;100476.69;;;-2.37;100.00
7052;BME280;3567;52.444;13.556;2022-12-10T01:58:04;100474.03;;;-2.45;100.00
7052;BME280;3567;52.444;13.556;2022-12-10T02:00:32;100471.53;;;-2.46;100.00
7052;BME280;3567;52.444;13.556;2022-12-10T02:03:04;100471.84;;;-2.49;100.00
7052;BME280;3567;52.444;13.556;2022-12-10T02:08:26;100476.03;;;-2.56;100.00
7052;BME280;3567;52.444;13.556;2022-12-10T02:11:09;100478.97;;;-2.59;100.00
7052;BME280;3567;52.444;13.556;2022-12-10T02:13:42;100473.03;;;-2.61;100.00
7052;BME280;3567;52.444;13.556;2022-12-10T02:16:30;100474.31;;;-2.66;100.00
7052;BME280;3567;52.444;13.556;2022-12-10T02:19:13;100471.97;;;-2.69;100.00
7052;BME280;3567;52.444;13.556;2022-12-10T02:21:42;100472.13;;;-2.70;100.00
7052;BME280;3567;52.444;13.556;2022-12-10T02:24:15;100467.19;;;-2.73;100.00
7052;BME280;3567;52.444;13.556;2022-12-10T02:31:43;100471.22;;;-2.79;100.00
7052;BME280;3567;52.444;13.556;2022-12-10T02:34:10;100474.81;;;-2.80;100.00
7052;BME280;3567;52.444;13.556;2022-12-10T02:36:38;100471.53;;;-2.82;100.00
7052;BME280;3567;52.444;13.556;2022-12-10T02:39:11;100476.78;;;-2.82;100.00
7052;BME280;3567;52.444;13.556;2022-12-10T02:41:43;100468.22;;;-2.84;100.00
7052;BME280;3567;52.444;13.556;2022-12-10T02:44:13;100468.38;;;-2.85;100.00
7052;BME280;3567;52.444;13.556;2022-12-10T02:46:42;100465.75;;;-2.85;100.00
7052;BME280;3567;52.444;13.556;2022-12-10T02:49:11;100471.97;;;-2.86;100.00
7052;BME280;3567;52.444;13.556;2022-12-10T02:51:38;100471.16;;;-2.87;100.00
7052;BME280;3567;52.444;13.556;2022-12-10T02:54:06;100472.97;;;-2.87;100.00
7052;BME280;3567;52.444;13.556;2022-12-10T02:56:41;100466.88;;;-2.88;100.00
7052;BME280;3567;52.444;13.556;2022-12-10T03:05:03;100479.16;;;-2.88;100.00
7052;BME280;3567;52.444;13.556;2022-12-10T03:07:36;100480.94;;;-2.89;100.00
7052;BME280;3567;52.444;13.556;2022-12-10T03:10:11;100477.50;;;-2.90;100.00
7052;BME280;3567;52.444;13.556;2022-12-10T03:12:43;100479.47;;;-2.92;100.00
7052;BME280;3567;52.444;13.556;2022-12-10T03:15:13;100487.31;;;-2.92;100.00
7052;BME280;3567;52.444;13.556;2022-12-10T03:17:41;100478.63;;;-2.92;100.00
7052;BME280;3567;52.444;13.556;2022-12-10T03:20:11;100479.59;;;-2.93;100.00
7052;BME280;3567;52.444;13.556;2022-12-10T03:22:39;100482.19;;;-2.93;100.00
7052;BME280;3567;52.444;13.556;2022-12-10T03:25:07;100480.88;;;-2.97;100.00
7052;BME280;3567;52.444;13.556;2022-12-10T03:27:36;100477.56;;;-2.99;100.00
7052;BME280;3567;52.444;13.556;2022-12-10T03:30:04;100474.56;;;-3.04;100.00
7052;BME280;3567;52.444;13.556;2022-12-10T03:32:30;100478.47;;;-3.08;100.00
7052;BME280;3567;52.444;13.556;2022-12-10T03:34:57;100483.31;;;-3.13;100.00
7052;BME280;3567;52.444;13.556;2022-12-10T03:37:26;100485.22;;;-3.16;100.00
7052;BME280;3567;52.444;13.556;2022-12-10T03:39:52;100484.72;;;-3.19;100.00
7052;BME280;3567;52.444;13.556;2022-12-10T03:42:18;100479.91;;;-3.24;100.00
7052;BME280;3567;52.444;13.556;2022-12-10T03:44:43;100486.25;;;-3.26;100.00
7052;BME280;3567;52.444;13.556;2022-12-10T03:47:12;100478.53;;;-3.28;100.00
7052;BME280;3567;52.444;13.556;2022-12-10T03:49:40;100485.75;;;-3.30;100.00
7052;BME280;3567;52.444;13.556;2022-12-10T03:52:05;100486.00;;;-3.33;100.00
7052;BME280;3567;52.444;13.556;2022-12-10T03:54:31;100481.06;;;-3.36;100.00
7052;BME280;3567;52.444;13.556;2022-12-10T03:56:56;100482.03;;;-3.37;100.00
7052;BME280;3567;52.444;13.556;2022-12-10T03:59:22;100494.31;;;-3.37;100.00
7052;BME280;3567;52.444;13.556;2022-12-10T04:01:47;100499.53;;;-3.37;100.00
7052;BME280;3567;52.444;13.556;2022-12-10T04:04:13;100504.63;;;-3.36;100.00
7052;BME280;3567;52.444;13.556;2022-12-10T04:06:39;100503.69;;;-3.35;100.00
7052;BME280;3567;52.444;13.556;2022-12-10T04:09:05;100500.09;;;-3.34;100.00
7052;BME280;3567;52.444;13.556;2022-12-10T04:11:31;100502.56;;;-3.32;100.00
7052;BME280;3567;52.444;13.556;2022-12-10T04:13:56;100501.47;;;-3.30;100.00
7052;BME280;3567;52.444;13.556;2022-12-10T04:16:40;100509.00;;;-3.27;100.00
7052;BME280;3567;52.444;13.556;2022-12-10T04:19:09;100505.28;;;-3.24;100.00
7052;BME280;3567;52.444;13.556;2022-12-10T04:21:36;100501.69;;;-3.23;100.00
7052;BME280;3567;52.444;13.556;2022-12-10T04:24:23;100502.22;;;-3.20;100.00
7052;BME280;3567;52.444;13.556;2022-12-10T04:27:13;100497.94;;;-3.21;100.00
7052;BME280;3567;52.444;13.556;2022-12-10T04:29:41;100502.22;;;-3.20;100.00
7052;BME280;3567;52.444;13.556;2022-12-10T04:32:07;100497.81;;;-3.19;100.00
7052;BME280;3567;52.444;13.556;2022-12-10T04:34:32;100497.66;;;-3.18;100.00
7052;BME280;3567;52.444;13.556;2022-12-10T04:36:58;100498.34;;;-3.16;100.00
7052;BME280;3567;52.444;13.556;2022-12-10T04:39:24;100497.22;;;-3.13;100.00
7052;BME280;3567;52.444;13.556;2022-12-10T04:41:50;100503.28;;;-3.12;100.00
7052;BME280;3567;52.444;13.556;2022-12-10T04:44:16;100501.34;;;-3.10;100.00
7052;BME280;3567;52.444;13.556;2022-12-10T04:46:41;100506.31;;;-3.07;100.00
7052;BME280;3567;52.444;13.556;2022-12-10T04:49:07;100503.38;;;-3.04;100.00
7052;BME280;3567;52.444;13.556;2022-12-10T04:51:33;100506.00;;;-3.04;100.00
7052;BME280;3567;52.444;13.556;2022-12-10T04:53:59;100501.56;;;-3.04;100.00
7052;BME280;3567;52.444;13.556;2022-12-10T04:56:24;100498.84;;;-3.02;100.00
7052;BME280;3567;52.444;13.556;2022-12-10T04:58:50;100507.38;;;-3.00;100.00
7052;BME280;3567;52.444;13.556;2022-12-10T05:01:16;100511.63;;;-2.99;100.00
7052;BME280;3567;52.444;13.556;2022-12-10T05:03:43;100503.47;;;-2.96;100.00
7052;BME280;3567;52.444;13.556;2022-12-10T05:06:10;100504.03;;;-2.93;100.00
7052;BME280;3567;52.444;13.556;2022-12-10T05:08:37;100509.94;;;-2.91;100.00
7052;BME280;3567;52.444;13.556;2022-12-10T05:11:06;100507.16;;;-2.89;100.00
7052;BME280;3567;52.444;13.556;2022-12-10T05:13:32;100507.84;;;-2.87;100.00
7052;BME280;3567;52.444;13.556;2022-12-10T05:15:57;100503.28;;;-2.85;100.00
7052;BME280;3567;52.444;13.556;2022-12-10T05:18:23;100509.50;;;-2.86;100.00
7052;BME280;3567;52.444;13.556;2022-12-10T05:20:49;100515.41;;;-2.84;100.00
7052;BME280;3567;52.444;13.556;2022-12-10T05:23:15;100512.63;;;-2.82;100.00
7052;BME280;3567;52.444;13.556;2022-12-10T05:26:33;100515.50;;;-2.76;100.00
7052;BME280;3567;52.444;13.556;2022-12-10T05:28:54;100513.56;;;-2.74;100.00
7052;BME280;3567;52.444;13.556;2022-12-10T05:31:21;100517.81;;;-2.73;100.00
7052;BME280;3567;52.444;13.556;2022-12-10T05:33:47;100515.88;;;-2.71;100.00
7052;BME280;3567;52.444;13.556;2022-12-10T05:36:16;100520.97;;;-2.69;100.00
7052;BME280;3567;52.444;13.556;2022-12-10T05:38:42;100520.00;;;-2.68;100.00
7052;BME280;3567;52.444;13.556;2022-12-10T05:41:19;100525.09;;;-2.67;100.00
7052;BME280;3567;52.444;13.556;2022-12-10T05:43:45;100528.41;;;-2.65;100.00
7052;BME280;3567;52.444;13.556;2022-12-10T05:46:14;100520.38;;;-2.63;100.00
7052;BME280;3567;52.444;13.556;2022-12-10T05:48:40;100520.22;;;-2.61;100.00
7052;BME280;3567;52.444;13.556;2022-12-10T05:51:07;100520.91;;;-2.59;100.00
7052;BME280;3567;52.444;13.556;2022-12-10T05:53:33;100513.72;;;-2.57;100.00
7052;BME280;3567;52.444;13.556;2022-12-10T05:56:04;100515.50;;;-2.58;100.00
7052;BME280;3567;52.444;13.556;2022-12-10T05:58:30;100515.34;;;-2.56;100.00
7052;BME280;3567;52.444;13.556;2022-12-10T06:00:56;100515.22;;;-2.55;100.00
7052;BME280;3567;52.444;13.556;2022-12-10T06:03:23;100516.72;;;-2.52;100.00
7052;BME280;3567;52.444;13.556;2022-12-10T06:05:49;100517.41;;;-2.50;100.00
7052;BME280;3567;52.444;13.556;2022-12-10T06:08:14;100517.25;;;-2.49;100.00
7052;BME280;3567;52.444;13.556;2022-12-10T06:10:39;100521.38;;;-2.46;100.00
7052;BME280;3567;52.444;13.556;2022-12-10T06:13:05;100517.75;;;-2.45;100.00
7052;BME280;3567;52.444;13.556;2022-12-10T06:15:31;100512.50;;;-2.45;100.00
7052;BME280;3567;52.444;13.556;2022-12-10T06:17:58;100511.56;;;-2.44;100.00
7052;BME280;3567;52.444;13.556;2022-12-10T06:20:25;100510.59;;;-2.43;100.00
7052;BME280;3567;52.444;13.556;2022-12-10T06:22:50;100513.88;;;-2.41;100.00
7052;BME280;3567;52.444;13.556;2022-12-10T06:25:16;100519.00;;;-2.40;100.00
7052;BME280;3567;52.444;13.556;2022-12-10T06:27:42;100523.09;;;-2.37;100.00
7052;BME280;3567;52.444;13.556;2022-12-10T06:30:08;100519.34;;;-2.34;100.00
7052;BME280;3567;52.444;13.556;2022-12-10T06:32:33;100524.56;;;-2.34;100.00
7052;BME280;3567;52.444;13.556;2022-12-10T06:34:59;100526.25;;;-2.33;100.00
7052;BME280;3567;52.444;13.556;2022-12-10T06:37:24;100525.13;;;-2.31;100.00
7052;BME280;3567;52.444;13.556;2022-12-10T06:39:51;100526.09;;;-2.32;100.00
7052;BME280;3567;52.444;13.556;2022-12-10T06:42:17;100533.97;;;-2.32;100.00
7052;BME280;3567;52.444;13.556;2022-12-10T06:44:43;100537.25;;;-2.30;100.00
7052;BME280;3567;52.444;13.556;2022-12-10T06:47:08;100533.69;;;-2.29;100.00
7052;BME280;3567;52.444;13.556;2022-12-10T06:49:33;100538.75;;;-2.27;100.00
7052;BME280;3567;52.444;13.556;2022-12-10T06:51:59;100543.03;;;-2.26;100.00
7052;BME280;3567;52.444;13.556;2022-12-10T06:54:25;100540.25;;;-2.25;100.00
7052;BME280;3567;52.444;13.556;2022-12-10T06:56:50;100542.75;;;-2.23;100.00
7052;BME280;3567;52.444;13.556;2022-12-10T06:59:15;100547.84;;;-2.22;100.00
7052;BME280;3567;52.444;13.556;2022-12-10T07:01:41;100545.06;;;-2.20;100.00
7052;BME280;3567;52.444;13.556;2022-12-10T07:04:06;100547.38;;;-2.17;100.00
7052;BME280;3567;52.444;13.556;2022-12-10T07:06:32;100555.09;;;-2.16;100.00
7052;BME280;3567;52.444;13.556;2022-12-10T07:08:58;100555.09;;;-2.16;100.00
7052;BME280;3567;52.444;13.556;2022-12-10T07:11:25;100558.53;;;-2.15;100.00
7052;BME280;3567;52.444;13.556;2022-12-10T07:13:51;100556.75;;;-2.15;100.00
7052;BME280;3567;52.444;13.556;2022-12-10T07:16:22;100560.06;;;-2.13;100.00
7052;BME280;3567;52.444;13.556;2022-12-10T07:18:50;100566.97;;;-2.12;100.00
7052;BME280;3567;52.444;13.556;2022-12-10T07:21:18;100566.13;;;-2.12;100.00
7052;BME280;3567;52.444;13.556;2022-12-10T07:23:44;100569.56;;;-2.12;100.00
7052;BME280;3567;52.444;13.556;2022-12-10T07:26:09;100565.97;;;-2.11;100.00
7052;BME280;3567;52.444;13.556;2022-12-10T07:28:35;100562.38;;;-2.09;100.00
7052;BME280;3567;52.444;13.556;2022-12-10T07:31:05;100565.00;;;-2.09;100.00
7052;BME280;3567;52.444;13.556;2022-12-10T07:33:30;100569.41;;;-2.10;100.00
7052;BME280;3567;52.444;13.556;2022-12-10T07:35:56;100569.25;;;-2.08;100.00
7052;BME280;3567;52.444;13.556;2022-12-10T07:38:22;100564.00;;;-2.08;100.00
7052;BME280;3567;52.444;13.556;2022-12-10T07:40:49;100574.38;;;-2.07;100.00
7052;BME280;3567;52.444;13.556;2022-12-10T07:43:14;100577.81;;;-2.06;100.00
7052;BME280;3567;52.444;13.556;2022-12-10T07:45:40;100575.03;;;-2.05;100.00
7052;BME280;3567;52.444;13.556;2022-12-10T07:48:05;100581.66;;;-2.01;100.00
7052;BME280;3567;52.444;13.556;2022-12-10T07:50:30;100585.75;;;-1.98;100.00
7052;BME280;3567;52.444;13.556;2022-12-10T07:52:56;100594.16;;;-1.95;100.00
7052;BME280;3567;52.444;13.556;2022-12-10T07:55:21;100589.56;;;-1.93;100.00
7052;BME280;3567;52.444;13.556;2022-12-10T07:57:47;100592.06;;;-1.91;100.00
7052;BME280;3567;52.444;13.556;2022-12-10T08:00:12;100587.78;;;-1.92;100.00
7052;BME280;3567;52.444;13.556;2022-12-10T08:02:38;100594.69;;;-1.91;100.00
7052;BME280;3567;52.444;13.556;2022-12-10T08:05:03;100596.19;;;-1.89;100.00
7052;BME280;3567;52.444;13.556;2022-12-10T08:07:29;100601.28;;;-1.87;100.00
7052;BME280;3567;52.444;13.556;2022-12-10T08:09:54;100598.53;;;-1.86;100.00
7052;BME280;3567;52.444;13.556;2022-12-10T08:12:19;100595.72;;;-1.84;100.00
7052;BME280;3567;52.444;13.556;2022-12-10T08:14:45;100600.69;;;-1.81;100.00
7052;BME280;3567;52.444;13.556;2022-12-10T08:17:10;100597.91;;;-1.79;100.00
7052;BME280;3567;52.444;13.556;2022-12-10T08:19:35;100606.59;;;-1.79;100.00
7052;BME280;3567;52.444;13.556;2022-12-10T08:22:01;100604.63;;;-1.77;100.00
7052;BME280;3567;52.444;13.556;2022-12-10T08:24:26;100604.50;;;-1.75;100.00
7052;BME280;3567;52.444;13.556;2022-12-10T08:26:51;100611.41;;;-1.74;100.00
7052;BME280;3567;52.444;13.556;2022-12-10T08:29:17;100610.25;;;-1.72;100.00
7052;BME280;3567;52.444;13.556;2022-12-10T08:31:42;100616.22;;;-1.70;100.00
7052;BME280;3567;52.444;13.556;2022-12-10T08:34:13;100613.59;;;-1.70;100.00
7052;BME280;3567;52.444;13.556;2022-12-10T08:36:38;100617.16;;;-1.71;100.00
7052;BME280;3567;52.444;13.556;2022-12-10T08:39:04;100610.25;;;-1.72;100.00
7052;BME280;3567;52.444;13.556;2022-12-10T08:41:29;100616.34;;;-1.71;100.00
7052;BME280;3567;52.444;13.556;2022-12-10T08:43:54;100610.63;;;-1.67;100.00
7052;BME280;3567;52.444;13.556;2022-12-10T08:46:20;100611.47;;;-1.66;100.00
7052;BME280;3567;52.444;13.556;2022-12-10T08:48:46;100611.31;;;-1.65;100.00
7052;BME280;3567;52.444;13.556;2022-12-10T08:51:15;100619.03;;;-1.63;100.00
7052;BME280;3567;52.444;13.556;2022-12-10T08:53:41;100630.38;;;-1.63;100.00
7052;BME280;3567;52.444;13.556;2022-12-10T08:56:07;100625.78;;;-1.61;100.00
7052;BME280;3567;52.444;13.556;2022-12-10T08:58:32;100630.91;;;-1.59;100.00
7052;BME280;3567;52.444;13.556;2022-12-10T09:00:58;100634.19;;;-1.57;100.00
7052;BME280;3567;52.444;13.556;2022-12-10T09:03:24;100635.53;;;-1.53;100.00
7052;BME280;3567;52.444;13.556;2022-12-10T09:05:49;100638.00;;;-1.51;100.00
7052;BME280;3567;52.444;13.556;2022-12-10T09:08:15;100628.16;;;-1.49;100.00
7052;BME280;3567;52.444;13.556;2022-12-10T09:10:41;100635.75;;;-1.46;100.00
7052;BME280;3567;52.444;13.556;2022-12-10T09:13:06;100635.75;;;-1.46;100.00
7052;BME280;3567;52.444;13.556;2022-12-10T09:15:32;100633.78;;;-1.44;100.00
7052;BME280;3567;52.444;13.556;2022-12-10T09:17:57;100639.03;;;-1.44;100.00
7052;BME280;3567;52.444;13.556;2022-12-10T09:20:23;100628.53;;;-1.44;100.00
7052;BME280;3567;52.444;13.556;2022-12-10T09:22:48;100635.47;;;-1.43;100.00
7052;BME280;3567;52.444;13.556;2022-12-10T09:25:14;100641.38;;;-1.41;100.00
7052;BME280;3567;52.444;13.556;2022-12-10T09:27:42;100630.03;;;-1.42;100.00
7052;BME280;3567;52.444;13.556;2022-12-10T09:30:09;100636.78;;;-1.39;100.00
7052;BME280;3567;52.444;13.556;2022-12-10T09:32:34;100643.72;;;-1.38;100.00
7052;BME280;3567;52.444;13.556;2022-12-10T09:35:00;100647.28;;;-1.39;100.00
7052;BME280;3567;52.444;13.556;2022-12-10T09:37:25;100648.97;;;-1.38;100.00
7052;BME280;3567;52.444;13.556;2022-12-10T09:39:50;100640.09;;;-1.37;100.00
7052;BME280;3567;52.444;13.556;2022-12-10T09:45:00;100639.63;;;-1.33;100.00
7052;BME280;3567;52.444;13.556;2022-12-10T09:47:35;100633.41;;;-1.32;100.00
7052;BME280;3567;52.444;13.556;2022-12-10T09:50:06;100637.66;;;-1.30;100.00
7052;BME280;3567;52.444;13.556;2022-12-10T09:52:39;100627.81;;;-1.28;100.00
7052;BME280;3567;52.444;13.556;2022-12-10T09:55:13;100634.75;;;-1.27;100.00
7052;BME280;3567;52.444;13.556;2022-12-10T09:57:42;100643.28;;;-1.25;100.00
7052;BME280;3567;52.444;13.556;2022-12-10T10:02:40;100631.78;;;-1.24;100.00
7052;BME280;3567;52.444;13.556;2022-12-10T10:07:32;100632.47;;;-1.22;100.00
7052;BME280;3567;52.444;13.556;2022-12-10T10:10:07;100631.34;;;-1.20;100.00
7052;BME280;3567;52.444;13.556;2022-12-10T10:12:34;100629.38;;;-1.18;100.00
7052;BME280;3567;52.444;13.556;2022-12-10T10:15:10;100629.88;;;-1.14;100.00
7052;BME280;3567;52.444;13.556;2022-12-10T10:17:38;100627.78;;;-1.11;100.00
7052;BME280;3567;52.444;13.556;2022-12-10T10:20:04;100633.69;;;-1.09;100.00
7052;BME280;3567;52.444;13.556;2022-12-10T10:22:30;100635.34;;;-1.08;100.00
7052;BME280;3567;52.444;13.556;2022-12-10T10:24:56;100637.16;;;-1.08;100.00
7052;BME280;3567;52.444;13.556;2022-12-10T10:27:24;100632.59;;;-1.06;100.00
7052;BME280;3567;52.444;13.556;2022-12-10T10:29:53;100636.69;;;-1.03;100.00
7052;BME280;3567;52.444;13.556;2022-12-10T10:32:24;100638.34;;;-1.02;100.00
7052;BME280;3567;52.444;13.556;2022-12-10T10:34:55;100629.78;;;-1.04;100.00
7052;BME280;3567;52.444;13.556;2022-12-10T10:37:27;100629.78;;;-1.04;100.00
7052;BME280;3567;52.444;13.556;2022-12-10T10:39:54;100635.88;;;-1.04;100.00
7052;BME280;3567;52.444;13.556;2022-12-10T10:42:36;100635.34;;;-1.08;100.00
7052;BME280;3567;52.444;13.556;2022-12-10T10:45:04;100630.78;;;-1.06;100.00
7052;BME280;3567;52.444;13.556;2022-12-10T10:47:33;100620.25;;;-1.06;100.00
7052;BME280;3567;52.444;13.556;2022-12-10T10:49:58;100624.38;;;-1.03;100.00
7052;BME280;3567;52.444;13.556;2022-12-10T10:52:28;100615.00;;;-1.06;100.00
7052;BME280;3567;52.444;13.556;2022-12-10T10:54:55;100618.75;;;-1.08;100.00
7052;BME280;3567;52.444;13.556;2022-12-10T10:57:34;100613.31;;;-1.07;100.00
7052;BME280;3567;52.444;13.556;2022-12-10T11:00:10;100614.00;;;-1.04;100.00
7052;BME280;3567;52.444;13.556;2022-12-10T11:02:42;100608.75;;;-1.04;100.00
7052;BME280;3567;52.444;13.556;2022-12-10T11:05:17;100605.13;;;-1.03;100.00
7052;BME280;3567;52.444;13.556;2022-12-10T11:07:45;100612.03;;;-1.02;100.00
7052;BME280;3567;52.444;13.556;2022-12-10T11:10:18;100610.41;;;-1.03;100.00
7052;BME280;3567;52.444;13.556;2022-12-10T11:12:45;100611.75;;;-0.99;100.00
7052;BME280;3567;52.444;13.556;2022-12-10T11:17:54;100602.56;;;-0.95;100.00
7052;BME280;3567;52.444;13.556;2022-12-10T11:20:23;100604.50;;;-0.97;100.00
7052;BME280;3567;52.444;13.556;2022-12-10T11:22:51;100599.13;;;-0.96;100.00
7052;BME280;3567;52.444;13.556;2022-12-10T11:25:21;100598.25;;;-0.96;100.00
7052;BME280;3567;52.444;13.556;2022-12-10T11:30:25;100594.00;;;-0.97;100.00
7052;BME280;3567;52.444;13.556;2022-12-10T11:38:33;100593.16;;;-0.98;100.00
7052;BME280;3567;52.444;13.556;2022-12-10T11:41:10;100591.22;;;-0.96;100.00
7052;BME280;3567;52.444;13.556;2022-12-10T11:46:25;100595.03;;;-0.90;100.00
7052;BME280;3567;52.444;13.556;2022-12-10T12:16:19;100606.84;;;-0.94;100.00
7052;BME280;3567;52.444;13.556;2022-12-10T12:19:14;100610.59;;;-0.97;100.00
7052;BME280;3567;52.444;13.556;2022-12-10T12:21:43;100607.47;;;-1.00;100.00
7052;BME280;3567;52.444;13.556;2022-12-10T12:24:16;100606.47;;;-0.99;100.00
7052;BME280;3567;52.444;13.556;2022-12-10T12:26:52;100610.59;;;-0.97;100.00
7052;BME280;3567;52.444;13.556;2022-12-10T12:29:33;100617.66;;;-0.97;100.00
7052;BME280;3567;52.444;13.556;2022-12-10T12:32:04;100614.91;;;-0.96;100.00
7052;BME280;3567;52.444;13.556;2022-12-10T12:34:50;100617.00;;;-0.99;100.00
7052;BME280;3567;52.444;13.556;2022-12-10T12:37:18;100616.00;;;-0.98;100.00
7052;BME280;3567;52.444;13.556;2022-12-10T12:39:59;100614.53;;;-1.01;100.00
7052;BME280;3567;52.444;13.556;2022-12-10T12:42:41;100612.88;;;-1.02;100.00
7052;BME280;3567;52.444;13.556;2022-12-10T12:45:13;100616.31;;;-1.01;100.00
7052;BME280;3567;52.444;13.556;2022-12-10T12:47:39;100605.97;;;-1.03;100.00
7052;BME280;3567;52.444;13.556;2022-12-10T12:53:02;100609.06;;;-1.08;100.00
7052;BME280;3567;52.444;13.556;2022-12-10T12:58:17;100615.28;;;-1.09;100.00
7052;BME280;3567;52.444;13.556;2022-12-10T13:00:48;100613.81;;;-1.11;100.00
7052;BME280;3567;52.444;13.556;2022-12-10T13:03:33;100615.75;;;-1.13;100.00
7052;BME280;3567;52.444;13.556;2022-12-10T13:06:26;100619.22;;;-1.13;100.00
7052;BME280;3567;52.444;13.556;2022-12-10T13:11:37;100625.78;;;-1.17;100.00
7052;BME280;3567;52.444;13.556;2022-12-10T13:40:36;100649.66;;;-1.28;100.00
7052;BME280;3567;52.444;13.556;2022-12-10T13:46:30;100647.66;;;-1.34;100.00
7052;BME280;3567;52.444;13.556;2022-12-10T13:49:00;100651.97;;;-1.33;100.00
7052;BME280;3567;52.444;13.556;2022-12-10T13:59:29;100655.53;;;-1.34;100.00
7052;BME280;3567;52.444;13.556;2022-12-10T14:07:42;100662.59;;;-1.35;100.00
7052;BME280;3567;52.444;13.556;2022-12-10T14:10:14;100658.16;;;-1.34;100.00
7052;BME280;3567;52.444;13.556;2022-12-10T14:12:41;100651.09;;;-1.34;100.00
7052;BME280;3567;52.444;13.556;2022-12-10T14:15:18;100656.34;;;-1.34;100.00
7052;BME280;3567;52.444;13.556;2022-12-10T14:17:48;100663.56;;;-1.36;100.00
7052;BME280;3567;52.444;13.556;2022-12-10T14:20:19;100660.78;;;-1.34;100.00
7052;BME280;3567;52.444;13.556;2022-12-10T14:22:48;100665.22;;;-1.35;100.00
7052;BME280;3567;52.444;13.556;2022-12-10T14:25:20;100658.31;;;-1.36;100.00
7052;BME280;3567;52.444;13.556;2022-12-10T14:27:50;100663.56;;;-1.36;100.00
7052;BME280;3567;52.444;13.556;2022-12-10T14:32:42;100654.22;;;-1.38;100.00
7052;BME280;3567;52.444;13.556;2022-12-10T14:35:13;100656.84;;;-1.38;100.00
7052;BME280;3567;52.444;13.556;2022-12-10T14:37:42;100661.13;;;-1.37;100.00
7052;BME280;3567;52.444;13.556;2022-12-10T14:40:09;100659.31;;;-1.37;100.00
7052;BME280;3567;52.444;13.556;2022-12-10T14:42:42;100662.91;;;-1.38;100.00
7052;BME280;3567;52.444;13.556;2022-12-10T14:45:13;100668.19;;;-1.38;100.00
7052;BME280;3567;52.444;13.556;2022-12-10T14:47:40;100664.72;;;-1.38;100.00
7052;BME280;3567;52.444;13.556;2022-12-10T14:50:14;100668.31;;;-1.39;100.00
7052;BME280;3567;52.444;13.556;2022-12-10T14:52:48;100671.09;;;-1.41;100.00
7052;BME280;3567;52.444;13.556;2022-12-10T14:55:18;100661.56;;;-1.42;100.00